sensor_id;sensor_type;location;lat;lon;timestamp;P1;durP1;ratioP1;P2;durP2;ratioP2
75854;SDS011;64502;59.976;30.316;2023-05-10T00:01:04;9.15;;;2.90;;
75854;SDS011;64502;59.976;30.316;2023-05-10T00:03:29;11.05;;;3.70;;
75854;SDS011;64502;59.976;30.316;2023-05-10T00:05:54;8.98;;;3.72;;
75854;SDS011;64502;59.976;30.316;2023-05-10T00:08:20;7.93;;;2.47;;
75854;SDS011;64502;59.976;30.316;2023-05-10T00:10:45;6.55;;;2.88;;
75854;SDS011;64502;59.976;30.316;2023-05-10T00:13:10;8.65;;;3.33;;
75854;SDS011;64502;59.976;30.316;2023-05-10T00:15:36;9.98;;;3.15;;
75854;SDS011;64502;59.976;30.316;2023-05-10T00:18:01;7.47;;;3.28;;
75854;SDS011;64502;59.976;30.316;2023-05-10T00:20:27;10.70;;;3.58;;
75854;SDS011;64502;59.976;30.316;2023-05-10T00:22:52;10.50;;;3.60;;
75854;SDS011;64502;59.976;30.316;2023-05-10T00:25:18;9.90;;;3.80;;
75854;SDS011;64502;59.976;30.316;2023-05-10T00:27:43;10.48;;;3.63;;
75854;SDS011;64502;59.976;30.316;2023-05-10T00:30:09;9.82;;;2.85;;
75854;SDS011;64502;59.976;30.316;2023-05-10T00:32:34;8.57;;;2.83;;
75854;SDS011;64502;59.976;30.316;2023-05-10T00:35:00;12.70;;;3.45;;
75854;SDS011;64502;59.976;30.316;2023-05-10T00:37:25;14.75;;;3.58;;
75854;SDS011;64502;59.976;30.316;2023-05-10T00:39:51;11.23;;;3.00;;
75854;SDS011;64502;59.976;30.316;2023-05-10T00:42:16;8.55;;;2.38;;
75854;SDS011;64502;59.976;30.316;2023-05-10T00:44:42;6.63;;;2.35;;
75854;SDS011;64502;59.976;30.316;2023-05-10T00:47:07;10.10;;;2.58;;
75854;SDS011;64502;59.976;30.316;2023-05-10T00:49:34;8.85;;;2.65;;
75854;SDS011;64502;59.976;30.316;2023-05-10T00:52:00;9.77;;;2.75;;
75854;SDS011;64502;59.976;30.316;2023-05-10T00:54:27;8.07;;;3.03;;
75854;SDS011;64502;59.976;30.316;2023-05-10T00:56:52;13.35;;;3.13;;
75854;SDS011;64502;59.976;30.316;2023-05-10T00:59:18;6.03;;;2.70;;
75854;SDS011;64502;59.976;30.316;2023-05-10T01:01:44;6.90;;;2.63;;
75854;SDS011;64502;59.976;30.316;2023-05-10T01:04:14;6.75;;;2.65;;
75854;SDS011;64502;59.976;30.316;2023-05-10T01:06:40;13.68;;;2.92;;
75854;SDS011;64502;59.976;30.316;2023-05-10T01:09:06;9.27;;;2.92;;
75854;SDS011;64502;59.976;30.316;2023-05-10T01:11:35;6.68;;;3.40;;
75854;SDS011;64502;59.976;30.316;2023-05-10T01:14:03;10.60;;;2.63;;
75854;SDS011;64502;59.976;30.316;2023-05-10T01:16:29;9.95;;;2.75;;
75854;SDS011;64502;59.976;30.316;2023-05-10T01:19:00;7.60;;;2.88;;
75854;SDS011;64502;59.976;30.316;2023-05-10T01:21:33;5.30;;;2.35;;
75854;SDS011;64502;59.976;30.316;2023-05-10T01:38:50;9.38;;;2.83;;
75854;SDS011;64502;59.976;30.316;2023-05-10T01:41:28;9.23;;;2.88;;
75854;SDS011;64502;59.976;30.316;2023-05-10T01:46:36;8.32;;;2.75;;
75854;SDS011;64502;59.976;30.316;2023-05-10T01:49:05;6.68;;;2.53;;
75854;SDS011;64502;59.976;30.316;2023-05-10T01:51:39;8.32;;;2.85;;
75854;SDS011;64502;59.976;30.316;2023-05-10T01:54:12;10.20;;;2.75;;
75854;SDS011;64502;59.976;30.316;2023-05-10T01:56:39;10.60;;;2.35;;
75854;SDS011;64502;59.976;30.316;2023-05-10T01:59:08;9.32;;;2.67;;
75854;SDS011;64502;59.976;30.316;2023-05-10T02:01:39;9.82;;;3.05;;
75854;SDS011;64502;59.976;30.316;2023-05-10T02:04:06;9.70;;;2.97;;
75854;SDS011;64502;59.976;30.316;2023-05-10T02:06:33;7.88;;;2.88;;
75854;SDS011;64502;59.976;30.316;2023-05-10T02:09:00;13.57;;;2.90;;
75854;SDS011;64502;59.976;30.316;2023-05-10T02:11:27;6.90;;;2.72;;
75854;SDS011;64502;59.976;30.316;2023-05-10T02:13:54;7.00;;;3.10;;
75854;SDS011;64502;59.976;30.316;2023-05-10T02:16:23;11.07;;;2.88;;
75854;SDS011;64502;59.976;30.316;2023-05-10T02:18:51;9.35;;;2.28;;
75854;SDS011;64502;59.976;30.316;2023-05-10T02:21:18;10.85;;;2.90;;
75854;SDS011;64502;59.976;30.316;2023-05-10T02:23:44;7.93;;;2.28;;
75854;SDS011;64502;59.976;30.316;2023-05-10T02:26:11;10.63;;;2.50;;
75854;SDS011;64502;59.976;30.316;2023-05-10T02:28:38;6.20;;;2.50;;
75854;SDS011;64502;59.976;30.316;2023-05-10T02:31:05;7.28;;;2.60;;
75854;SDS011;64502;59.976;30.316;2023-05-10T02:33:33;7.80;;;2.65;;
75854;SDS011;64502;59.976;30.316;2023-05-10T02:35:59;6.55;;;3.08;;
75854;SDS011;64502;59.976;30.316;2023-05-10T02:38:27;9.60;;;2.50;;
75854;SDS011;64502;59.976;30.316;2023-05-10T02:40:53;8.13;;;2.38;;
75854;SDS011;64502;59.976;30.316;2023-05-10T02:43:20;7.85;;;2.92;;
75854;SDS011;64502;59.976;30.316;2023-05-10T02:45:48;11.23;;;2.33;;
75854;SDS011;64502;59.976;30.316;2023-05-10T02:48:14;10.20;;;3.13;;
75854;SDS011;64502;59.976;30.316;2023-05-10T02:50:42;7.38;;;2.88;;
75854;SDS011;64502;59.976;30.316;2023-05-10T02:53:10;6.75;;;2.95;;
75854;SDS011;64502;59.976;30.316;2023-05-10T02:55:40;6.95;;;3.15;;
75854;SDS011;64502;59.976;30.316;2023-05-10T02:58:08;10.40;;;3.03;;
75854;SDS011;64502;59.976;30.316;2023-05-10T03:00:34;9.27;;;3.60;;
75854;SDS011;64502;59.976;30.316;2023-05-10T03:03:01;9.15;;;3.75;;
75854;SDS011;64502;59.976;30.316;2023-05-10T03:05:27;12.27;;;3.50;;
75854;SDS011;64502;59.976;30.316;2023-05-10T03:07:52;8.60;;;3.60;;
75854;SDS011;64502;59.976;30.316;2023-05-10T03:10:18;6.88;;;3.50;;
75854;SDS011;64502;59.976;30.316;2023-05-10T03:18:37;6.82;;;3.83;;
75854;SDS011;64502;59.976;30.316;2023-05-10T03:21:02;7.80;;;3.70;;
75854;SDS011;64502;59.976;30.316;2023-05-10T03:23:35;7.25;;;3.53;;
75854;SDS011;64502;59.976;30.316;2023-05-10T03:26:05;10.95;;;4.45;;
75854;SDS011;64502;59.976;30.316;2023-05-10T03:28:32;9.55;;;4.05;;
75854;SDS011;64502;59.976;30.316;2023-05-10T03:30:59;19.45;;;4.72;;
75854;SDS011;64502;59.976;30.316;2023-05-10T03:33:25;8.43;;;4.05;;
75854;SDS011;64502;59.976;30.316;2023-05-10T03:35:51;9.75;;;3.53;;
75854;SDS011;64502;59.976;30.316;2023-05-10T03:38:16;11.80;;;4.07;;
75854;SDS011;64502;59.976;30.316;2023-05-10T03:40:42;7.38;;;3.50;;
75854;SDS011;64502;59.976;30.316;2023-05-10T03:43:07;7.82;;;3.80;;
75854;SDS011;64502;59.976;30.316;2023-05-10T03:45:33;9.25;;;4.53;;
75854;SDS011;64502;59.976;30.316;2023-05-10T03:47:58;8.80;;;4.30;;
75854;SDS011;64502;59.976;30.316;2023-05-10T03:50:24;11.38;;;4.47;;
75854;SDS011;64502;59.976;30.316;2023-05-10T03:52:49;8.45;;;4.85;;
75854;SDS011;64502;59.976;30.316;2023-05-10T03:55:15;10.77;;;3.88;;
75854;SDS011;64502;59.976;30.316;2023-05-10T03:57:41;9.23;;;3.47;;
75854;SDS011;64502;59.976;30.316;2023-05-10T04:00:07;14.02;;;4.38;;
75854;SDS011;64502;59.976;30.316;2023-05-10T04:02:33;9.80;;;3.97;;
75854;SDS011;64502;59.976;30.316;2023-05-10T04:04:58;12.27;;;4.72;;
75854;SDS011;64502;59.976;30.316;2023-05-10T04:07:24;10.63;;;4.35;;
75854;SDS011;64502;59.976;30.316;2023-05-10T04:09:49;9.35;;;2.97;;
75854;SDS011;64502;59.976;30.316;2023-05-10T04:12:15;13.13;;;3.72;;
75854;SDS011;64502;59.976;30.316;2023-05-10T04:14:40;7.95;;;3.05;;
75854;SDS011;64502;59.976;30.316;2023-05-10T04:17:06;7.55;;;2.90;;
75854;SDS011;64502;59.976;30.316;2023-05-10T04:19:31;7.72;;;3.70;;
75854;SDS011;64502;59.976;30.316;2023-05-10T04:21:57;12.02;;;4.38;;
75854;SDS011;64502;59.976;30.316;2023-05-10T04:24:23;13.90;;;4.13;;
75854;SDS011;64502;59.976;30.316;2023-05-10T04:26:48;7.18;;;3.55;;
75854;SDS011;64502;59.976;30.316;2023-05-10T04:29:14;7.35;;;3.60;;
75854;SDS011;64502;59.976;30.316;2023-05-10T04:31:39;11.75;;;4.80;;
75854;SDS011;64502;59.976;30.316;2023-05-10T04:34:05;10.88;;;3.92;;
75854;SDS011;64502;59.976;30.316;2023-05-10T04:36:30;11.77;;;3.47;;
75854;SDS011;64502;59.976;30.316;2023-05-10T04:38:59;8.15;;;3.33;;
75854;SDS011;64502;59.976;30.316;2023-05-10T04:41:25;9.93;;;3.63;;
75854;SDS011;64502;59.976;30.316;2023-05-10T04:43:50;7.28;;;3.13;;
75854;SDS011;64502;59.976;30.316;2023-05-10T04:46:16;10.32;;;3.47;;
75854;SDS011;64502;59.976;30.316;2023-05-10T04:48:41;7.32;;;3.30;;
75854;SDS011;64502;59.976;30.316;2023-05-10T04:51:07;7.28;;;3.13;;
75854;SDS011;64502;59.976;30.316;2023-05-10T04:53:32;9.60;;;3.53;;
75854;SDS011;64502;59.976;30.316;2023-05-10T04:55:58;6.32;;;2.90;;
75854;SDS011;64502;59.976;30.316;2023-05-10T04:58:24;5.13;;;3.33;;
75854;SDS011;64502;59.976;30.316;2023-05-10T05:00:49;4.88;;;3.05;;
75854;SDS011;64502;59.976;30.316;2023-05-10T05:03:16;4.93;;;2.25;;
75854;SDS011;64502;59.976;30.316;2023-05-10T05:05:41;6.65;;;2.70;;
75854;SDS011;64502;59.976;30.316;2023-05-10T05:08:07;6.45;;;3.67;;
75854;SDS011;64502;59.976;30.316;2023-05-10T05:10:32;5.68;;;3.03;;
75854;SDS011;64502;59.976;30.316;2023-05-10T05:12:58;8.68;;;3.15;;
75854;SDS011;64502;59.976;30.316;2023-05-10T05:15:23;5.53;;;2.55;;
75854;SDS011;64502;59.976;30.316;2023-05-10T05:17:48;8.00;;;2.53;;
75854;SDS011;64502;59.976;30.316;2023-05-10T05:20:14;7.88;;;2.10;;
75854;SDS011;64502;59.976;30.316;2023-05-10T05:22:39;5.90;;;2.42;;
75854;SDS011;64502;59.976;30.316;2023-05-10T05:25:05;4.30;;;2.58;;
75854;SDS011;64502;59.976;30.316;2023-05-10T05:27:31;6.22;;;2.53;;
75854;SDS011;64502;59.976;30.316;2023-05-10T05:29:59;4.45;;;2.40;;
75854;SDS011;64502;59.976;30.316;2023-05-10T05:32:25;5.68;;;2.33;;
75854;SDS011;64502;59.976;30.316;2023-05-10T05:34:50;5.88;;;2.30;;
75854;SDS011;64502;59.976;30.316;2023-05-10T05:37:16;4.53;;;2.15;;
75854;SDS011;64502;59.976;30.316;2023-05-10T05:39:43;4.40;;;2.22;;
75854;SDS011;64502;59.976;30.316;2023-05-10T05:42:10;5.25;;;1.90;;
75854;SDS011;64502;59.976;30.316;2023-05-10T05:44:36;3.85;;;2.20;;
75854;SDS011;64502;59.976;30.316;2023-05-10T05:47:02;6.00;;;2.25;;
75854;SDS011;64502;59.976;30.316;2023-05-10T05:49:28;5.10;;;1.77;;
75854;SDS011;64502;59.976;30.316;2023-05-10T05:51:53;5.07;;;2.00;;
75854;SDS011;64502;59.976;30.316;2023-05-10T05:54:19;4.72;;;2.20;;
75854;SDS011;64502;59.976;30.316;2023-05-10T05:56:45;6.90;;;2.20;;
75854;SDS011;64502;59.976;30.316;2023-05-10T05:59:10;6.22;;;2.67;;
75854;SDS011;64502;59.976;30.316;2023-05-10T06:01:36;6.53;;;1.98;;
75854;SDS011;64502;59.976;30.316;2023-05-10T06:04:02;6.15;;;2.80;;
75854;SDS011;64502;59.976;30.316;2023-05-10T06:06:27;6.30;;;2.50;;
75854;SDS011;64502;59.976;30.316;2023-05-10T06:08:53;9.10;;;3.55;;
75854;SDS011;64502;59.976;30.316;2023-05-10T06:11:19;4.65;;;2.30;;
75854;SDS011;64502;59.976;30.316;2023-05-10T06:13:46;8.85;;;2.70;;
75854;SDS011;64502;59.976;30.316;2023-05-10T06:16:12;6.03;;;2.53;;
75854;SDS011;64502;59.976;30.316;2023-05-10T06:18:38;8.32;;;3.13;;
75854;SDS011;64502;59.976;30.316;2023-05-10T06:21:03;5.22;;;2.42;;
75854;SDS011;64502;59.976;30.316;2023-05-10T06:23:29;5.07;;;2.40;;
75854;SDS011;64502;59.976;30.316;2023-05-10T06:25:54;4.38;;;2.05;;
75854;SDS011;64502;59.976;30.316;2023-05-10T06:28:20;5.97;;;2.13;;
75854;SDS011;64502;59.976;30.316;2023-05-10T06:30:46;5.38;;;2.10;;
75854;SDS011;64502;59.976;30.316;2023-05-10T06:33:11;4.30;;;2.35;;
75854;SDS011;64502;59.976;30.316;2023-05-10T06:35:37;6.30;;;2.17;;
75854;SDS011;64502;59.976;30.316;2023-05-10T06:38:02;5.05;;;2.28;;
75854;SDS011;64502;59.976;30.316;2023-05-10T06:40:27;6.03;;;2.17;;
75854;SDS011;64502;59.976;30.316;2023-05-10T06:42:53;5.07;;;2.30;;
75854;SDS011;64502;59.976;30.316;2023-05-10T06:45:18;4.55;;;1.80;;
75854;SDS011;64502;59.976;30.316;2023-05-10T06:47:44;4.95;;;1.90;;
75854;SDS011;64502;59.976;30.316;2023-05-10T06:50:09;7.90;;;1.90;;
75854;SDS011;64502;59.976;30.316;2023-05-10T06:52:36;4.95;;;1.92;;
75854;SDS011;64502;59.976;30.316;2023-05-10T06:55:03;7.70;;;1.92;;
75854;SDS011;64502;59.976;30.316;2023-05-10T06:57:29;6.05;;;1.95;;
75854;SDS011;64502;59.976;30.316;2023-05-10T06:59:55;2.42;;;1.33;;
75854;SDS011;64502;59.976;30.316;2023-05-10T07:02:21;4.57;;;1.40;;
75854;SDS011;64502;59.976;30.316;2023-05-10T07:04:47;5.30;;;1.80;;
75854;SDS011;64502;59.976;30.316;2023-05-10T07:07:13;4.50;;;1.50;;
75854;SDS011;64502;59.976;30.316;2023-05-10T07:09:39;3.42;;;1.40;;
75854;SDS011;64502;59.976;30.316;2023-05-10T07:12:05;4.63;;;1.60;;
75854;SDS011;64502;59.976;30.316;2023-05-10T07:14:30;4.40;;;2.00;;
75854;SDS011;64502;59.976;30.316;2023-05-10T07:16:56;5.03;;;1.50;;
75854;SDS011;64502;59.976;30.316;2023-05-10T07:19:21;5.75;;;1.58;;
75854;SDS011;64502;59.976;30.316;2023-05-10T07:21:47;4.32;;;1.40;;
75854;SDS011;64502;59.976;30.316;2023-05-10T07:24:13;5.13;;;1.58;;
75854;SDS011;64502;59.976;30.316;2023-05-10T07:26:38;5.47;;;1.83;;
75854;SDS011;64502;59.976;30.316;2023-05-10T07:29:03;4.82;;;1.20;;
75854;SDS011;64502;59.976;30.316;2023-05-10T07:31:29;4.93;;;1.92;;
75854;SDS011;64502;59.976;30.316;2023-05-10T07:33:54;4.68;;;1.50;;
75854;SDS011;64502;59.976;30.316;2023-05-10T07:36:20;2.70;;;1.27;;
75854;SDS011;64502;59.976;30.316;2023-05-10T07:38:46;4.00;;;1.55;;
75854;SDS011;64502;59.976;30.316;2023-05-10T07:41:11;3.90;;;1.60;;
75854;SDS011;64502;59.976;30.316;2023-05-10T07:43:37;4.60;;;1.75;;
75854;SDS011;64502;59.976;30.316;2023-05-10T07:46:03;2.75;;;1.10;;
75854;SDS011;64502;59.976;30.316;2023-05-10T07:48:29;4.25;;;1.27;;
75854;SDS011;64502;59.976;30.316;2023-05-10T07:50:54;4.15;;;1.33;;
75854;SDS011;64502;59.976;30.316;2023-05-10T07:53:19;3.30;;;1.20;;
75854;SDS011;64502;59.976;30.316;2023-05-10T07:55:49;3.28;;;1.25;;
75854;SDS011;64502;59.976;30.316;2023-05-10T07:58:16;5.00;;;1.38;;
75854;SDS011;64502;59.976;30.316;2023-05-10T08:00:41;3.17;;;1.27;;
75854;SDS011;64502;59.976;30.316;2023-05-10T08:03:06;2.70;;;1.40;;
75854;SDS011;64502;59.976;30.316;2023-05-10T08:05:32;3.35;;;1.35;;
75854;SDS011;64502;59.976;30.316;2023-05-10T08:07:57;3.47;;;1.00;;
75854;SDS011;64502;59.976;30.316;2023-05-10T08:10:24;2.72;;;1.35;;
75854;SDS011;64502;59.976;30.316;2023-05-10T08:12:49;4.00;;;1.40;;
75854;SDS011;64502;59.976;30.316;2023-05-10T08:15:15;3.97;;;1.35;;
75854;SDS011;64502;59.976;30.316;2023-05-10T08:17:40;4.53;;;1.42;;
75854;SDS011;64502;59.976;30.316;2023-05-10T08:20:06;3.05;;;1.58;;
75854;SDS011;64502;59.976;30.316;2023-05-10T08:22:32;6.38;;;1.30;;
75854;SDS011;64502;59.976;30.316;2023-05-10T08:24:58;2.53;;;1.33;;
75854;SDS011;64502;59.976;30.316;2023-05-10T08:27:23;4.45;;;1.40;;
75854;SDS011;64502;59.976;30.316;2023-05-10T08:29:49;3.53;;;1.67;;
75854;SDS011;64502;59.976;30.316;2023-05-10T08:32:14;4.18;;;1.17;;
75854;SDS011;64502;59.976;30.316;2023-05-10T08:34:40;3.30;;;1.58;;
75854;SDS011;64502;59.976;30.316;2023-05-10T08:37:05;3.97;;;1.30;;
75854;SDS011;64502;59.976;30.316;2023-05-10T08:39:33;3.80;;;1.20;;
75854;SDS011;64502;59.976;30.316;2023-05-10T08:44:27;2.40;;;1.20;;
75854;SDS011;64502;59.976;30.316;2023-05-10T08:46:53;4.93;;;2.67;;
75854;SDS011;64502;59.976;30.316;2023-05-10T08:49:19;4.35;;;1.17;;
75854;SDS011;64502;59.976;30.316;2023-05-10T08:51:53;4.07;;;1.60;;
75854;SDS011;64502;59.976;30.316;2023-05-10T08:54:20;4.05;;;1.70;;
75854;SDS011;64502;59.976;30.316;2023-05-10T08:56:46;5.78;;;1.50;;
75854;SDS011;64502;59.976;30.316;2023-05-10T08:59:12;5.63;;;1.50;;
75854;SDS011;64502;59.976;30.316;2023-05-10T09:01:39;6.68;;;1.60;;
75854;SDS011;64502;59.976;30.316;2023-05-10T09:04:06;4.35;;;1.95;;
75854;SDS011;64502;59.976;30.316;2023-05-10T09:06:31;4.35;;;1.50;;
75854;SDS011;64502;59.976;30.316;2023-05-10T09:08:58;5.13;;;1.77;;
75854;SDS011;64502;59.976;30.316;2023-05-10T09:11:24;5.47;;;1.33;;
75854;SDS011;64502;59.976;30.316;2023-05-10T09:13:50;4.00;;;1.40;;
75854;SDS011;64502;59.976;30.316;2023-05-10T09:16:17;6.90;;;1.60;;
75854;SDS011;64502;59.976;30.316;2023-05-10T09:18:43;3.30;;;1.55;;
75854;SDS011;64502;59.976;30.316;2023-05-10T09:21:09;2.70;;;1.10;;
75854;SDS011;64502;59.976;30.316;2023-05-10T09:23:35;5.85;;;1.50;;
75854;SDS011;64502;59.976;30.316;2023-05-10T09:26:04;3.70;;;1.40;;
75854;SDS011;64502;59.976;30.316;2023-05-10T09:28:33;4.00;;;1.40;;
75854;SDS011;64502;59.976;30.316;2023-05-10T09:31:14;3.72;;;1.52;;
75854;SDS011;64502;59.976;30.316;2023-05-10T09:33:43;4.28;;;1.45;;
75854;SDS011;64502;59.976;30.316;2023-05-10T09:36:10;3.38;;;1.40;;
75854;SDS011;64502;59.976;30.316;2023-05-10T09:38:45;3.60;;;1.13;;
75854;SDS011;64502;59.976;30.316;2023-05-10T09:41:18;2.92;;;1.33;;
75854;SDS011;64502;59.976;30.316;2023-05-10T09:43:46;3.60;;;1.58;;
75854;SDS011;64502;59.976;30.316;2023-05-10T09:46:12;4.22;;;1.10;;
75854;SDS011;64502;59.976;30.316;2023-05-10T09:48:42;4.22;;;1.67;;
75854;SDS011;64502;59.976;30.316;2023-05-10T09:51:09;6.05;;;1.67;;
75854;SDS011;64502;59.976;30.316;2023-05-10T09:53:35;3.10;;;1.17;;
75854;SDS011;64502;59.976;30.316;2023-05-10T09:56:00;4.75;;;1.30;;
75854;SDS011;64502;59.976;30.316;2023-05-10T09:58:26;3.70;;;1.25;;
75854;SDS011;64502;59.976;30.316;2023-05-10T10:00:52;3.13;;;1.25;;
75854;SDS011;64502;59.976;30.316;2023-05-10T10:03:19;2.92;;;1.00;;
75854;SDS011;64502;59.976;30.316;2023-05-10T10:05:45;4.03;;;1.60;;
75854;SDS011;64502;59.976;30.316;2023-05-10T10:08:12;4.90;;;1.35;;
75854;SDS011;64502;59.976;30.316;2023-05-10T10:10:39;4.32;;;0.93;;
75854;SDS011;64502;59.976;30.316;2023-05-10T10:13:10;3.20;;;1.33;;
75854;SDS011;64502;59.976;30.316;2023-05-10T10:15:35;2.95;;;1.17;;
75854;SDS011;64502;59.976;30.316;2023-05-10T10:18:01;4.53;;;1.60;;
75854;SDS011;64502;59.976;30.316;2023-05-10T10:20:28;3.40;;;0.93;;
75854;SDS011;64502;59.976;30.316;2023-05-10T10:22:54;3.00;;;1.15;;
75854;SDS011;64502;59.976;30.316;2023-05-10T10:25:20;3.53;;;1.10;;
75854;SDS011;64502;59.976;30.316;2023-05-10T10:36:01;3.88;;;1.20;;
75854;SDS011;64502;59.976;30.316;2023-05-10T10:54:52;3.10;;;1.35;;
75854;SDS011;64502;59.976;30.316;2023-05-10T10:57:18;6.80;;;1.60;;
75854;SDS011;64502;59.976;30.316;2023-05-10T10:59:46;4.65;;;1.70;;
75854;SDS011;64502;59.976;30.316;2023-05-10T11:07:52;2.45;;;1.33;;
75854;SDS011;64502;59.976;30.316;2023-05-10T11:10:22;3.10;;;1.50;;
75854;SDS011;64502;59.976;30.316;2023-05-10T11:17:43;3.43;;;1.20;;
75854;SDS011;64502;59.976;30.316;2023-05-10T11:20:09;3.22;;;1.33;;
75854;SDS011;64502;59.976;30.316;2023-05-10T11:22:50;2.85;;;1.17;;
75854;SDS011;64502;59.976;30.316;2023-05-10T11:25:17;3.30;;;1.05;;
75854;SDS011;64502;59.976;30.316;2023-05-10T11:27:43;2.33;;;0.80;;
75854;SDS011;64502;59.976;30.316;2023-05-10T11:30:09;3.05;;;1.10;;
75854;SDS011;64502;59.976;30.316;2023-05-10T11:32:37;2.80;;;1.20;;
75854;SDS011;64502;59.976;30.316;2023-05-10T11:35:10;4.10;;;1.02;;
75854;SDS011;64502;59.976;30.316;2023-05-10T11:37:37;4.85;;;1.05;;
75854;SDS011;64502;59.976;30.316;2023-05-10T11:40:08;3.47;;;1.05;;
75854;SDS011;64502;59.976;30.316;2023-05-10T11:42:37;2.88;;;1.35;;
75854;SDS011;64502;59.976;30.316;2023-05-10T11:45:03;3.03;;;1.17;;
75854;SDS011;64502;59.976;30.316;2023-05-10T11:47:29;3.60;;;0.90;;
75854;SDS011;64502;59.976;30.316;2023-05-10T11:49:55;3.55;;;1.10;;
75854;SDS011;64502;59.976;30.316;2023-05-10T11:52:20;4.20;;;1.10;;
75854;SDS011;64502;59.976;30.316;2023-05-10T11:54:52;2.80;;;0.80;;
75854;SDS011;64502;59.976;30.316;2023-05-10T11:57:19;3.92;;;1.15;;
75854;SDS011;64502;59.976;30.316;2023-05-10T11:59:46;2.20;;;0.82;;
75854;SDS011;64502;59.976;30.316;2023-05-10T12:02:15;2.22;;;1.20;;
75854;SDS011;64502;59.976;30.316;2023-05-10T12:04:41;4.05;;;1.15;;
75854;SDS011;64502;59.976;30.316;2023-05-10T12:07:07;3.25;;;1.00;;
75854;SDS011;64502;59.976;30.316;2023-05-10T12:09:33;3.47;;;1.08;;
75854;SDS011;64502;59.976;30.316;2023-05-10T12:11:58;3.90;;;1.02;;
75854;SDS011;64502;59.976;30.316;2023-05-10T12:14:24;4.65;;;1.33;;
75854;SDS011;64502;59.976;30.316;2023-05-10T12:16:50;4.30;;;1.05;;
75854;SDS011;64502;59.976;30.316;2023-05-10T12:19:19;3.15;;;1.25;;
75854;SDS011;64502;59.976;30.316;2023-05-10T12:21:47;4.78;;;0.85;;
75854;SDS011;64502;59.976;30.316;2023-05-10T12:24:13;3.75;;;1.15;;
75854;SDS011;64502;59.976;30.316;2023-05-10T12:26:42;3.47;;;1.17;;
75854;SDS011;64502;59.976;30.316;2023-05-10T12:29:17;6.13;;;0.93;;
75854;SDS011;64502;59.976;30.316;2023-05-10T12:31:57;2.83;;;0.98;;
75854;SDS011;64502;59.976;30.316;2023-05-10T12:34:31;5.50;;;1.17;;
75854;SDS011;64502;59.976;30.316;2023-05-10T12:36:58;3.45;;;0.90;;
75854;SDS011;64502;59.976;30.316;2023-05-10T12:39:24;3.75;;;1.35;;
75854;SDS011;64502;59.976;30.316;2023-05-10T12:41:50;2.35;;;1.02;;
75854;SDS011;64502;59.976;30.316;2023-05-10T12:44:16;3.63;;;1.30;;
75854;SDS011;64502;59.976;30.316;2023-05-10T12:46:42;6.75;;;1.40;;
75854;SDS011;64502;59.976;30.316;2023-05-10T12:49:07;5.65;;;1.20;;
75854;SDS011;64502;59.976;30.316;2023-05-10T12:51:33;2.67;;;0.90;;
75854;SDS011;64502;59.976;30.316;2023-05-10T12:53:58;2.78;;;0.98;;
75854;SDS011;64502;59.976;30.316;2023-05-10T12:56:23;4.07;;;1.55;;
75854;SDS011;64502;59.976;30.316;2023-05-10T12:58:49;4.00;;;1.05;;
75854;SDS011;64502;59.976;30.316;2023-05-10T13:01:14;2.92;;;1.10;;
75854;SDS011;64502;59.976;30.316;2023-05-10T13:03:40;3.97;;;1.15;;
75854;SDS011;64502;59.976;30.316;2023-05-10T13:06:05;2.35;;;1.13;;
75854;SDS011;64502;59.976;30.316;2023-05-10T13:08:31;2.95;;;1.65;;
75854;SDS011;64502;59.976;30.316;2023-05-10T13:10:59;3.17;;;1.27;;
75854;SDS011;64502;59.976;30.316;2023-05-10T13:13:25;3.60;;;1.25;;
75854;SDS011;64502;59.976;30.316;2023-05-10T13:15:51;2.17;;;1.20;;
75854;SDS011;64502;59.976;30.316;2023-05-10T13:18:16;1.98;;;1.23;;
75854;SDS011;64502;59.976;30.316;2023-05-10T13:20:42;2.92;;;1.20;;
75854;SDS011;64502;59.976;30.316;2023-05-10T13:23:10;3.25;;;0.95;;
75854;SDS011;64502;59.976;30.316;2023-05-10T13:25:36;3.13;;;1.10;;
75854;SDS011;64502;59.976;30.316;2023-05-10T13:28:01;4.25;;;1.30;;
75854;SDS011;64502;59.976;30.316;2023-05-10T13:30:27;2.28;;;1.40;;
75854;SDS011;64502;59.976;30.316;2023-05-10T13:32:53;2.05;;;1.27;;
75854;SDS011;64502;59.976;30.316;2023-05-10T13:35:19;2.45;;;1.33;;
75854;SDS011;64502;59.976;30.316;2023-05-10T13:37:45;4.50;;;0.90;;
75854;SDS011;64502;59.976;30.316;2023-05-10T13:40:10;2.05;;;1.30;;
75854;SDS011;64502;59.976;30.316;2023-05-10T13:42:36;3.90;;;1.40;;
75854;SDS011;64502;59.976;30.316;2023-05-10T13:45:02;4.35;;;1.30;;
75854;SDS011;64502;59.976;30.316;2023-05-10T13:47:28;3.97;;;1.08;;
75854;SDS011;64502;59.976;30.316;2023-05-10T13:49:53;3.13;;;1.33;;
75854;SDS011;64502;59.976;30.316;2023-05-10T13:52:19;3.90;;;1.45;;
75854;SDS011;64502;59.976;30.316;2023-05-10T13:54:44;3.30;;;1.33;;
75854;SDS011;64502;59.976;30.316;2023-05-10T13:57:10;2.80;;;1.10;;
75854;SDS011;64502;59.976;30.316;2023-05-10T13:59:38;5.88;;;1.13;;
75854;SDS011;64502;59.976;30.316;2023-05-10T14:02:04;5.00;;;1.33;;
75854;SDS011;64502;59.976;30.316;2023-05-10T14:04:29;3.95;;;1.13;;
75854;SDS011;64502;59.976;30.316;2023-05-10T14:06:55;8.43;;;1.70;;
75854;SDS011;64502;59.976;30.316;2023-05-10T14:09:21;4.15;;;1.10;;
75854;SDS011;64502;59.976;30.316;2023-05-10T14:11:47;2.17;;;1.15;;
75854;SDS011;64502;59.976;30.316;2023-05-10T14:14:12;3.63;;;1.50;;
75854;SDS011;64502;59.976;30.316;2023-05-10T14:16:40;4.30;;;1.45;;
75854;SDS011;64502;59.976;30.316;2023-05-10T14:19:07;3.05;;;1.27;;
75854;SDS011;64502;59.976;30.316;2023-05-10T14:21:33;3.20;;;1.42;;
75854;SDS011;64502;59.976;30.316;2023-05-10T14:23:58;5.32;;;1.33;;
75854;SDS011;64502;59.976;30.316;2023-05-10T14:26:24;5.32;;;1.85;;
75854;SDS011;64502;59.976;30.316;2023-05-10T14:28:49;3.47;;;1.13;;
75854;SDS011;64502;59.976;30.316;2023-05-10T14:31:15;2.63;;;1.33;;
75854;SDS011;64502;59.976;30.316;2023-05-10T14:33:41;3.40;;;1.17;;
75854;SDS011;64502;59.976;30.316;2023-05-10T14:36:07;3.38;;;1.30;;
75854;SDS011;64502;59.976;30.316;2023-05-10T14:38:33;3.95;;;1.10;;
75854;SDS011;64502;59.976;30.316;2023-05-10T14:40:59;4.18;;;1.13;;
75854;SDS011;64502;59.976;30.316;2023-05-10T14:43:24;3.15;;;1.23;;
75854;SDS011;64502;59.976;30.316;2023-05-10T14:45:50;3.30;;;1.33;;
75854;SDS011;64502;59.976;30.316;2023-05-10T14:48:15;3.20;;;1.42;;
75854;SDS011;64502;59.976;30.316;2023-05-10T14:50:42;3.78;;;1.10;;
75854;SDS011;64502;59.976;30.316;2023-05-10T14:56:01;4.05;;;1.58;;
75854;SDS011;64502;59.976;30.316;2023-05-10T14:58:45;2.88;;;1.40;;
75854;SDS011;64502;59.976;30.316;2023-05-10T15:01:11;5.18;;;1.80;;
75854;SDS011;64502;59.976;30.316;2023-05-10T15:03:36;6.25;;;1.30;;
75854;SDS011;64502;59.976;30.316;2023-05-10T15:06:02;2.92;;;1.50;;
75854;SDS011;64502;59.976;30.316;2023-05-10T15:08:28;3.88;;;1.35;;
75854;SDS011;64502;59.976;30.316;2023-05-10T15:10:53;4.88;;;1.60;;
75854;SDS011;64502;59.976;30.316;2023-05-10T15:13:21;4.30;;;1.77;;
75854;SDS011;64502;59.976;30.316;2023-05-10T15:15:46;3.78;;;1.35;;
75854;SDS011;64502;59.976;30.316;2023-05-10T15:18:12;3.22;;;1.55;;
75854;SDS011;64502;59.976;30.316;2023-05-10T15:20:37;4.78;;;1.35;;
75854;SDS011;64502;59.976;30.316;2023-05-10T15:23:03;4.35;;;1.33;;
75854;SDS011;64502;59.976;30.316;2023-05-10T15:25:28;2.47;;;1.10;;
75854;SDS011;64502;59.976;30.316;2023-05-10T15:27:54;4.38;;;1.40;;
75854;SDS011;64502;59.976;30.316;2023-05-10T15:30:20;5.10;;;1.58;;
75854;SDS011;64502;59.976;30.316;2023-05-10T15:32:45;3.38;;;1.45;;